New Ipswich, New Hampshire
Current Conditions -  °F | °C
As of 11:52 AM on Thursday 23 Oct 2014 (Local Time) from KAFN Reporting Station
Light Rain Light Rain  
Wind Chill: 45°   Ceiling: 900
Heat Index: 48°   Visibility: 10mi
Dew Point: 46°   Wind: 7mph
Humidity: 93%   Direction: NA
Pressure: 29.72"   Gusts: 21mph
Location:  42.75°N, 71.85°W
Report Text: KAFN 231552Z AUTO VRB06G18KT 10SM -RA BKN009 OVC014 09/08 A2972 RMK AO2 SLP073 P0006 T00890078
Loading
Personal Weather Stations






























Interactive Weather Map
Tropical Storm Tracking
New forecast layout! Learn more

10-Day Weather Forecast

Advertisements
Track Severe Weather on mobile